createdAt,value
2019-05-12T00:00:28.823Z,9.31
2019-05-12T00:02:59.320Z,9.34
2019-05-12T00:05:28.146Z,9.38
2019-05-12T00:07:58.305Z,9.42
2019-05-12T00:10:28.264Z,9.37
2019-05-12T00:12:58.182Z,9.41
2019-05-12T00:15:28.017Z,9.40
2019-05-12T00:17:58.685Z,9.34
2019-05-12T00:20:28.330Z,9.30
2019-05-12T00:23:23.207Z,9.34
2019-05-12T00:25:38.729Z,9.40
2019-05-12T00:28:07.914Z,9.49
2019-05-12T00:30:41.108Z,9.37
2019-05-12T00:33:09.780Z,9.34
2019-05-12T00:35:38.635Z,9.32
2019-05-12T00:38:08.987Z,9.41
2019-05-12T00:40:39.318Z,9.38
2019-05-12T00:43:08.909Z,9.38
2019-05-12T00:45:38.938Z,9.45
2019-05-12T00:48:09.052Z,9.45
2019-05-12T00:50:38.416Z,9.38
2019-05-12T00:53:09.169Z,9.46
2019-05-12T00:55:38.033Z,9.41
2019-05-12T00:58:08.724Z,9.49
2019-05-12T01:00:40.580Z,9.34
2019-05-12T01:03:08.954Z,9.28
2019-05-12T01:05:38.345Z,9.25
2019-05-12T01:08:09.069Z,9.31
2019-05-12T01:10:39.013Z,9.30
2019-05-12T01:13:09.068Z,9.32
2019-05-12T01:15:38.291Z,9.37
2019-05-12T01:18:09.371Z,9.20
2019-05-12T01:20:39.023Z,9.27
2019-05-12T01:23:08.669Z,9.22
2019-05-12T01:25:39.568Z,9.20
2019-05-12T01:28:08.343Z,9.16
2019-05-12T01:30:39.029Z,9.26
2019-05-12T01:33:08.544Z,9.26
2019-05-12T01:35:38.750Z,9.32
2019-05-12T01:38:08.547Z,9.21
2019-05-12T01:40:39.349Z,9.13
2019-05-12T01:43:08.663Z,9.19
2019-05-12T01:45:38.000Z,9.24
2019-05-12T01:48:08.751Z,9.18
2019-05-12T01:50:38.558Z,9.21
2019-05-12T01:53:08.357Z,9.12
2019-05-12T01:55:38.712Z,9.12
2019-05-12T01:58:08.360Z,9.19
2019-05-12T02:00:38.911Z,9.08
2019-05-12T02:03:09.143Z,9.15
2019-05-12T02:05:39.769Z,9.28
2019-05-12T02:08:09.961Z,9.18
2019-05-12T02:10:38.903Z,9.14
2019-05-12T02:13:08.041Z,9.08
2019-05-12T02:15:38.288Z,9.27
2019-05-12T02:18:09.080Z,9.20
2019-05-12T02:20:38.150Z,9.24
2019-05-12T02:23:08.869Z,9.16
2019-05-12T02:25:38.473Z,9.15
2019-05-12T02:28:09.180Z,9.20
2019-05-12T02:30:40.719Z,9.20
2019-05-12T02:33:07.401Z,9.21
2019-05-12T02:35:35.939Z,9.14
2019-05-12T02:38:05.080Z,9.07
2019-05-12T02:40:34.885Z,9.12
2019-05-12T02:43:05.317Z,9.19
2019-05-12T02:45:35.674Z,9.25
2019-05-12T02:48:05.253Z,9.18
2019-05-12T02:50:37.102Z,9.11
2019-05-12T02:53:06.605Z,9.04
2019-05-12T02:55:35.878Z,9.18
2019-05-12T02:58:05.909Z,9.04
2019-05-12T03:00:35.769Z,9.21
2019-05-12T03:03:06.043Z,9.15
2019-05-12T03:05:35.666Z,9.23
2019-05-12T03:08:05.000Z,9.17
2019-05-12T03:10:35.900Z,9.24
2019-05-12T03:13:04.883Z,9.28
2019-05-12T03:15:36.587Z,9.18
2019-05-12T03:18:06.337Z,9.22
2019-05-12T03:20:35.100Z,9.21
2019-05-12T03:23:05.836Z,9.23
2019-05-12T03:25:35.554Z,9.13
2019-05-12T03:28:08.199Z,9.06
2019-05-12T03:30:38.597Z,9.17
2019-05-12T03:33:09.194Z,9.15
2019-05-12T03:35:42.587Z,9.14
2019-05-12T03:38:05.753Z,9.16
2019-05-12T03:40:37.489Z,9.08
2019-05-12T03:43:05.659Z,9.06
2019-05-12T03:45:35.957Z,9.15
2019-05-12T03:48:05.603Z,9.24
2019-05-12T03:50:35.879Z,9.16
2019-05-12T03:53:10.056Z,9.14
2019-05-12T03:55:41.076Z,9.19
2019-05-12T03:58:05.968Z,9.06
2019-05-12T04:00:35.911Z,9.09
2019-05-12T04:03:05.309Z,9.11
2019-05-12T04:05:35.439Z,9.07
2019-05-12T04:08:05.757Z,9.09
2019-05-12T04:10:36.480Z,8.93
2019-05-12T04:13:05.742Z,8.94
2019-05-12T04:15:35.499Z,8.81
2019-05-12T04:18:05.880Z,9.02
2019-05-12T04:20:36.075Z,8.90
2019-05-12T04:23:06.369Z,8.78
2019-05-12T04:25:51.092Z,8.89
2019-05-12T04:28:05.859Z,8.77
2019-05-12T04:30:35.651Z,8.97
2019-05-12T04:33:05.629Z,8.92
2019-05-12T04:35:35.587Z,8.86
2019-05-12T04:38:05.101Z,8.87
2019-05-12T04:40:35.785Z,8.82
2019-05-12T04:43:06.239Z,8.89
2019-05-12T04:45:35.682Z,8.96
2019-05-12T04:48:06.072Z,8.88
2019-05-12T04:50:36.098Z,9.09
2019-05-12T04:53:06.502Z,9.11
2019-05-12T04:55:36.012Z,9.18
2019-05-12T04:58:05.136Z,9.02
2019-05-12T05:00:34.784Z,9.21
2019-05-12T05:03:05.442Z,9.28
2019-05-12T05:05:35.976Z,9.29
2019-05-12T05:08:05.260Z,9.25
2019-05-12T05:10:34.793Z,9.27
2019-05-12T05:13:05.326Z,9.03
2019-05-12T05:15:35.042Z,9.17
2019-05-12T05:18:06.774Z,9.23
2019-05-12T05:20:35.016Z,9.09
2019-05-12T05:23:04.253Z,9.28
2019-05-12T05:25:35.010Z,9.22
2019-05-12T05:28:04.505Z,9.30
2019-05-12T05:30:34.181Z,9.28
2019-05-12T05:33:04.462Z,9.32
2019-05-12T05:35:39.432Z,9.22
2019-05-12T05:38:05.118Z,9.25
2019-05-12T05:40:35.845Z,9.20
2019-05-12T05:43:12.430Z,9.21
2019-05-12T05:45:35.052Z,9.42
2019-05-12T05:48:09.467Z,9.38
2019-05-12T05:50:34.860Z,9.38
2019-05-12T05:53:03.922Z,9.37
2019-05-12T05:55:34.311Z,9.74
2019-05-12T05:58:08.407Z,9.69
2019-05-12T06:00:34.654Z,9.56
2019-05-12T06:03:05.754Z,9.74
2019-05-12T06:05:38.190Z,9.89
2019-05-12T06:08:04.489Z,10.14
2019-05-12T06:10:36.033Z,10.38
2019-05-12T06:13:04.108Z,10.27
2019-05-12T06:15:38.287Z,10.75
2019-05-12T06:18:04.623Z,10.95
2019-05-12T06:20:37.688Z,10.77
2019-05-12T06:23:04.292Z,10.77
2019-05-12T06:25:45.970Z,10.87
2019-05-12T06:28:08.005Z,11.03
2019-05-12T06:30:37.474Z,10.88
2019-05-12T06:33:04.859Z,11.37
2019-05-12T06:35:37.453Z,10.95
2019-05-12T06:38:05.010Z,11.11
2019-05-12T06:40:40.300Z,10.96
2019-05-12T06:43:04.577Z,10.77
2019-05-12T06:45:39.476Z,10.86
2019-05-12T06:48:04.047Z,10.66
2019-05-12T06:50:37.104Z,10.99
2019-05-12T06:53:05.106Z,11.20
2019-05-12T06:55:36.881Z,11.23
2019-05-12T06:58:04.641Z,11.12
2019-05-12T07:00:35.224Z,10.85
2019-05-12T07:03:04.711Z,11.29
2019-05-12T07:05:38.336Z,11.03
2019-05-12T07:08:04.499Z,10.98
2019-05-12T07:10:41.629Z,11.18
2019-05-12T07:13:05.577Z,10.99
2019-05-12T07:15:35.818Z,11.12
2019-05-12T07:18:05.075Z,11.14
2019-05-12T07:20:38.764Z,11.30
2019-05-12T07:23:11.338Z,11.60
2019-05-12T07:25:39.886Z,11.43
2019-05-12T07:28:08.782Z,11.49
2019-05-12T07:30:37.253Z,11.37
2019-05-12T07:33:05.792Z,11.47
2019-05-12T07:35:34.648Z,11.79
2019-05-12T07:38:05.015Z,11.92
2019-05-12T07:40:37.501Z,12.38
2019-05-12T07:43:04.523Z,12.01
2019-05-12T07:45:34.082Z,12.00
2019-05-12T07:48:05.694Z,12.07
2019-05-12T07:50:34.599Z,11.96
2019-05-12T07:53:04.466Z,11.93
2019-05-12T07:55:34.064Z,12.41
2019-05-12T07:58:13.771Z,12.35
2019-05-12T08:00:34.211Z,12.31
2019-05-12T08:03:08.166Z,12.55
2019-05-12T08:05:33.779Z,12.17
2019-05-12T08:08:06.963Z,12.45
2019-05-12T08:10:34.265Z,12.28
2019-05-12T08:13:04.523Z,12.27
2019-05-12T08:15:34.425Z,12.69
2019-05-12T08:18:07.510Z,12.65
2019-05-12T08:20:34.359Z,12.83
2019-05-12T08:23:07.859Z,12.70
2019-05-12T08:25:34.802Z,12.83
2019-05-12T08:28:15.049Z,12.92
2019-05-12T08:30:46.376Z,13.02
2019-05-12T08:33:09.906Z,13.20
2019-05-12T08:35:38.810Z,13.15
2019-05-12T08:38:07.729Z,12.90
2019-05-12T08:40:39.653Z,13.19
2019-05-12T08:43:10.376Z,13.26
2019-05-12T08:45:37.598Z,13.09
2019-05-12T08:48:10.125Z,13.45
2019-05-12T08:50:37.094Z,13.50
2019-05-12T08:53:05.572Z,13.23
2019-05-12T08:55:35.894Z,13.33
2019-05-12T08:58:04.699Z,13.35
2019-05-12T09:00:46.574Z,13.61
2019-05-12T09:03:13.939Z,14.01
2019-05-12T09:05:44.647Z,13.74
2019-05-12T09:08:14.036Z,13.70
2019-05-12T09:10:44.933Z,13.67
2019-05-12T09:13:14.384Z,13.69
2019-05-12T09:15:43.793Z,13.80
2019-05-12T09:18:14.475Z,13.76
2019-05-12T09:20:48.873Z,14.26
2019-05-12T09:23:13.652Z,14.19
2019-05-12T09:25:45.385Z,14.10
2019-05-12T09:28:13.849Z,14.57
2019-05-12T09:30:47.608Z,14.32
2019-05-12T09:33:14.079Z,13.85
2019-05-12T09:35:43.728Z,13.67
2019-05-12T09:38:21.416Z,13.35
2019-05-12T09:40:46.286Z,14.17
2019-05-12T09:43:14.754Z,14.33
2019-05-12T09:45:51.460Z,14.82
2019-05-12T09:48:14.151Z,14.21
2019-05-12T09:50:46.281Z,14.48
2019-05-12T09:53:14.458Z,14.30
2019-05-12T09:55:44.021Z,14.82
2019-05-12T09:58:15.793Z,15.06
2019-05-12T10:00:43.614Z,14.79
2019-05-12T10:03:13.845Z,14.95
2019-05-12T10:05:44.188Z,14.82
2019-05-12T10:08:13.838Z,15.35
2019-05-12T10:10:47.095Z,15.12
2019-05-12T10:13:15.059Z,15.56
2019-05-12T10:15:43.604Z,15.46
2019-05-12T10:18:14.312Z,15.63
2019-05-12T10:20:44.116Z,15.35
2019-05-12T10:23:18.045Z,15.75
2019-05-12T10:25:44.711Z,15.94
2019-05-12T10:28:16.098Z,15.77
2019-05-12T10:30:47.129Z,16.40
2019-05-12T10:33:14.018Z,17.07
2019-05-12T10:35:43.866Z,16.69
2019-05-12T10:38:13.745Z,16.99
2019-05-12T10:40:44.410Z,17.61
2019-05-12T10:43:12.806Z,18.19
2019-05-12T10:45:41.245Z,18.52
2019-05-12T10:48:09.747Z,18.50
2019-05-12T10:50:38.617Z,19.22
2019-05-12T10:53:09.884Z,18.68
2019-05-12T10:55:37.434Z,18.41
2019-05-12T10:58:07.242Z,18.14
2019-05-12T11:00:35.907Z,19.12
2019-05-12T11:03:10.868Z,19.88
2019-05-12T11:05:34.969Z,19.02
2019-05-12T11:08:10.999Z,20.30
2019-05-12T11:10:33.788Z,19.95
2019-05-12T11:13:08.306Z,20.70
2019-05-12T11:15:34.225Z,20.87
2019-05-12T11:18:04.310Z,20.80
2019-05-12T11:20:34.392Z,20.30
2019-05-12T11:23:03.631Z,20.10
2019-05-12T11:25:33.961Z,20.99
2019-05-12T11:28:03.720Z,21.54
2019-05-12T11:30:34.523Z,20.92
2019-05-12T11:33:04.272Z,22.43
2019-05-12T11:35:34.012Z,22.77
2019-05-12T11:38:04.403Z,22.60
2019-05-12T11:40:34.712Z,22.24
2019-05-12T11:43:04.478Z,22.08
2019-05-12T11:45:33.840Z,21.96
2019-05-12T11:48:05.992Z,22.18
2019-05-12T11:50:33.466Z,22.01
2019-05-12T11:53:04.312Z,23.07
2019-05-12T11:55:34.667Z,22.89
2019-05-12T11:58:06.865Z,21.84
2019-05-12T12:00:34.188Z,21.93
2019-05-12T12:03:11.513Z,22.63
2019-05-12T12:05:34.374Z,23.12
2019-05-12T12:08:03.917Z,24.76
2019-05-12T12:10:37.613Z,22.70
2019-05-12T12:13:03.681Z,23.63
2019-05-12T12:15:34.480Z,23.66
2019-05-12T12:18:13.241Z,23.41
2019-05-12T12:20:33.725Z,24.47
2019-05-12T12:23:06.565Z,24.63
2019-05-12T12:25:34.232Z,24.38
2019-05-12T12:28:04.441Z,24.38
2019-05-12T12:30:34.143Z,24.40
2019-05-12T12:33:03.974Z,23.75
2019-05-12T12:35:34.584Z,22.26
2019-05-12T12:38:04.188Z,24.51
2019-05-12T12:40:32.694Z,24.38
2019-05-12T12:43:03.487Z,25.14
2019-05-12T12:45:48.389Z,25.07
2019-05-12T12:48:19.302Z,26.36
2019-05-12T12:50:47.246Z,25.04
2019-05-12T12:53:16.015Z,22.71
2019-05-12T12:55:45.233Z,25.12
2019-05-12T12:58:14.192Z,27.13
2019-05-12T13:00:48.074Z,26.30
2019-05-12T13:03:14.409Z,26.57
2019-05-12T13:05:43.899Z,27.07
2019-05-12T13:08:12.641Z,23.31
2019-05-12T13:10:47.087Z,25.47
2019-05-12T13:13:14.052Z,23.69
2019-05-12T13:15:41.547Z,26.90
2019-05-12T13:18:17.969Z,26.36
2019-05-12T13:20:40.390Z,22.43
2019-05-12T13:23:08.979Z,22.14
2019-05-12T13:25:38.781Z,24.81
2019-05-12T13:28:12.381Z,24.81
2019-05-12T13:30:46.340Z,26.44
2019-05-12T13:33:15.095Z,26.34
2019-05-12T13:35:55.817Z,22.37
2019-05-12T13:38:24.062Z,22.49
2019-05-12T13:40:54.094Z,20.34
2019-05-12T13:43:23.741Z,22.78
2019-05-12T13:45:53.424Z,20.32
2019-05-12T13:48:23.972Z,23.79
2019-05-12T13:50:54.305Z,25.28
2019-05-12T13:53:24.379Z,25.83
2019-05-12T13:55:54.278Z,25.87
2019-05-12T13:58:22.989Z,25.22
2019-05-12T14:01:12.284Z,26.83
2019-05-12T14:03:21.903Z,26.80
2019-05-12T14:05:51.197Z,27.58
2019-05-12T14:08:20.771Z,26.76
2019-05-12T14:10:53.879Z,28.53
2019-05-12T14:13:19.447Z,28.14
2019-05-12T14:15:47.931Z,26.78
2019-05-12T14:18:20.594Z,27.95
2019-05-12T14:20:50.945Z,27.98
2019-05-12T14:23:16.746Z,26.79
2019-05-12T14:25:45.549Z,27.83
2019-05-12T14:28:16.555Z,28.10
2019-05-12T14:30:47.436Z,26.87
2019-05-12T14:33:18.137Z,27.88
2019-05-12T14:35:46.007Z,27.18
2019-05-12T14:38:19.453Z,27.38
2019-05-12T14:40:44.998Z,26.62
2019-05-12T14:43:17.026Z,26.64
2019-05-12T14:45:44.080Z,27.45
2019-05-12T14:48:13.686Z,27.39
2019-05-12T14:50:44.127Z,26.93
2019-05-12T14:53:14.422Z,27.49
2019-05-12T14:55:42.732Z,28.02
2019-05-12T14:58:17.781Z,26.70
2019-05-12T15:00:41.461Z,26.36
2019-05-12T15:03:15.511Z,23.26
2019-05-12T15:05:41.391Z,22.43
2019-05-12T15:08:10.327Z,20.88
2019-05-12T15:10:38.804Z,21.52
2019-05-12T15:13:07.280Z,21.48
2019-05-12T15:15:35.783Z,20.40
2019-05-12T15:18:09.273Z,20.21
2019-05-12T15:20:34.560Z,19.76
2019-05-12T15:23:03.701Z,19.56
2019-05-12T15:25:35.596Z,19.24
2019-05-12T15:28:03.836Z,18.90
2019-05-12T15:30:33.697Z,18.86
2019-05-12T15:33:04.511Z,19.09
2019-05-12T15:35:34.407Z,20.17
2019-05-12T15:38:03.893Z,20.47
2019-05-12T15:40:32.658Z,18.97
2019-05-12T15:43:05.215Z,18.36
2019-05-12T15:45:31.359Z,18.34
2019-05-12T15:47:59.863Z,19.57
2019-05-12T15:50:28.416Z,21.31
2019-05-12T15:52:56.876Z,21.80
2019-05-12T15:55:32.898Z,23.58
2019-05-12T15:57:55.513Z,24.66
2019-05-12T16:00:24.445Z,24.21
2019-05-12T16:02:53.507Z,24.14
2019-05-12T16:05:28.803Z,21.52
2019-05-12T16:07:54.034Z,19.88
2019-05-12T16:10:23.676Z,21.08
2019-05-12T16:12:52.417Z,23.49
2019-05-12T16:15:21.305Z,23.28
2019-05-12T16:17:50.100Z,20.60
2019-05-12T16:20:18.828Z,19.92
2019-05-12T16:22:47.296Z,18.33
2019-05-12T16:25:20.528Z,18.04
2019-05-12T16:27:46.215Z,17.89
2019-05-12T16:30:14.973Z,17.43
2019-05-12T16:32:47.657Z,17.32
2019-05-12T16:35:14.480Z,17.40
2019-05-12T16:37:44.532Z,17.19
2019-05-12T16:40:14.111Z,16.80
2019-05-12T16:42:48.334Z,16.81
2019-05-12T16:45:14.557Z,16.76
2019-05-12T16:47:44.847Z,16.51
2019-05-12T16:50:23.704Z,16.27
2019-05-12T16:52:45.876Z,16.30
2019-05-12T16:55:14.417Z,16.07
2019-05-12T16:57:51.243Z,15.97
2019-05-12T17:00:17.006Z,15.97
2019-05-12T17:02:53.682Z,15.88
2019-05-12T17:05:20.042Z,15.74
2019-05-12T17:07:50.292Z,15.90
2019-05-12T17:10:17.001Z,15.72
2019-05-12T17:12:48.403Z,15.67
2019-05-12T17:15:15.831Z,15.45
2019-05-12T17:17:44.946Z,15.48
2019-05-12T17:20:15.560Z,15.48
2019-05-12T17:22:54.637Z,15.29
2019-05-12T17:25:16.705Z,15.31
2019-05-12T17:27:46.829Z,15.32
2019-05-12T17:30:15.695Z,15.36
2019-05-12T17:32:57.572Z,15.20
2019-05-12T17:35:15.036Z,15.15
2019-05-12T17:37:44.685Z,14.91
2019-05-12T17:40:18.595Z,14.97
2019-05-12T17:42:44.353Z,14.86
2019-05-12T17:45:18.000Z,14.78
2019-05-12T17:47:44.450Z,14.65
2019-05-12T17:50:16.327Z,14.62
2019-05-12T17:52:45.472Z,14.56
2019-05-12T17:55:15.212Z,14.57
2019-05-12T17:57:44.417Z,14.49
2019-05-12T18:00:14.952Z,14.50
2019-05-12T18:02:44.092Z,14.35
2019-05-12T18:05:15.513Z,14.34
2019-05-12T18:07:44.751Z,14.24
2019-05-12T18:10:13.872Z,14.21
2019-05-12T18:12:45.282Z,14.16
2019-05-12T18:15:15.000Z,14.25
2019-05-12T18:17:47.405Z,14.19
2019-05-12T18:20:14.593Z,14.02
2019-05-12T18:22:45.143Z,13.97
2019-05-12T18:25:14.678Z,14.06
2019-05-12T18:27:50.260Z,13.83
2019-05-12T18:30:18.237Z,13.86
2019-05-12T18:32:44.190Z,13.67
2019-05-12T18:35:13.636Z,13.73
2019-05-12T18:37:42.547Z,13.60
2019-05-12T18:40:11.115Z,13.51
2019-05-12T18:42:39.643Z,13.44
2019-05-12T18:45:17.343Z,13.48
2019-05-12T18:47:39.004Z,13.42
2019-05-12T18:50:09.150Z,13.29
2019-05-12T18:52:42.949Z,13.21
2019-05-12T18:55:09.086Z,13.30
2019-05-12T18:57:39.079Z,13.13
2019-05-12T19:00:19.987Z,13.10
2019-05-12T19:02:51.011Z,12.92
2019-05-12T19:05:29.778Z,12.92
2019-05-12T19:07:49.498Z,12.75
2019-05-12T19:10:18.191Z,12.81
2019-05-12T19:12:46.739Z,12.78
2019-05-12T19:15:19.993Z,12.68
2019-05-12T19:17:46.030Z,12.70
2019-05-12T19:20:15.263Z,12.60
2019-05-12T19:22:49.653Z,12.51
2019-05-12T19:25:15.089Z,12.47
2019-05-12T19:27:45.819Z,12.40
2019-05-12T19:30:18.909Z,12.35
2019-05-12T19:32:45.006Z,12.19
2019-05-12T19:35:20.038Z,12.27
2019-05-12T19:37:45.650Z,12.10
2019-05-12T19:40:17.465Z,12.00
2019-05-12T19:42:45.042Z,11.95
2019-05-12T19:45:19.559Z,11.97
2019-05-12T19:47:44.410Z,11.88
2019-05-12T19:50:18.210Z,11.82
2019-05-12T19:52:43.581Z,11.86
2019-05-12T19:55:14.058Z,11.71
2019-05-12T19:57:44.203Z,11.74
2019-05-12T20:00:13.862Z,11.56
2019-05-12T20:02:42.587Z,11.48
2019-05-12T20:05:15.069Z,11.35
2019-05-12T20:07:41.428Z,11.32
2019-05-12T20:10:13.844Z,11.18
2019-05-12T20:12:43.445Z,11.10
2019-05-12T20:15:11.834Z,11.05
2019-05-12T20:17:40.587Z,10.98
2019-05-12T20:20:09.620Z,10.93
2019-05-12T20:22:38.103Z,10.93
2019-05-12T20:25:07.023Z,10.90
2019-05-12T20:27:35.512Z,10.92
2019-05-12T20:30:15.353Z,10.84
2019-05-12T20:32:36.700Z,10.75
2019-05-12T20:35:06.968Z,10.65
2019-05-12T20:37:35.481Z,10.68
2019-05-12T20:40:06.759Z,10.60
2019-05-12T20:42:42.420Z,10.49
2019-05-12T20:45:07.264Z,10.40
2019-05-12T20:47:38.916Z,10.44
2019-05-12T20:50:07.330Z,10.36
2019-05-12T20:52:44.473Z,10.30
2019-05-12T20:55:14.414Z,10.24
2019-05-12T20:57:51.846Z,10.17
2019-05-12T21:00:14.110Z,10.14
2019-05-12T21:02:44.338Z,10.08
2019-05-12T21:05:19.856Z,9.94
2019-05-12T21:07:44.652Z,10.00
2019-05-12T21:10:14.877Z,10.03
2019-05-12T21:12:46.581Z,9.97
2019-05-12T21:15:20.259Z,9.96
2019-05-12T21:17:52.050Z,10.05
2019-05-12T21:20:16.893Z,9.93
2019-05-12T21:22:44.967Z,9.85
2019-05-12T21:25:13.981Z,9.88
2019-05-12T21:27:46.864Z,9.79
2019-05-12T21:30:15.169Z,9.74
2019-05-12T21:32:47.297Z,9.63
2019-05-12T21:35:19.341Z,9.63
2019-05-12T21:37:46.349Z,9.59
2019-05-12T21:40:14.943Z,9.54
2019-05-12T21:42:44.603Z,9.46
2019-05-12T21:45:14.662Z,9.43
2019-05-12T21:47:44.518Z,9.37
2019-05-12T21:50:14.130Z,9.26
2019-05-12T21:52:44.643Z,9.21
2019-05-12T21:55:21.287Z,9.11
2019-05-12T21:57:43.973Z,8.97
2019-05-12T22:00:20.299Z,8.87
2019-05-12T22:02:49.927Z,8.87
2019-05-12T22:05:23.960Z,8.90
2019-05-12T22:07:48.562Z,8.89
2019-05-12T22:10:25.251Z,8.86
2019-05-12T22:12:47.186Z,8.65
2019-05-12T22:15:21.264Z,8.54
2019-05-12T22:18:04.714Z,8.64
2019-05-12T22:20:35.453Z,8.52
2019-05-12T22:23:09.761Z,8.41
2019-05-12T22:25:34.902Z,8.53
2019-05-12T22:28:07.332Z,8.43
2019-05-12T22:30:34.857Z,8.44
2019-05-12T22:33:05.923Z,8.29
2019-05-12T22:35:33.858Z,8.31
2019-05-12T22:38:09.409Z,8.16
2019-05-12T22:40:32.460Z,8.11
2019-05-12T22:43:01.622Z,8.13
2019-05-12T22:45:36.110Z,8.01
2019-05-12T22:48:03.697Z,7.93
2019-05-12T22:50:32.995Z,7.87
2019-05-12T22:53:04.119Z,7.81
2019-05-12T22:55:35.075Z,7.69
2019-05-12T22:58:02.694Z,7.59
2019-05-12T23:00:33.893Z,7.40
2019-05-12T23:03:07.215Z,7.40
2019-05-12T23:05:31.693Z,7.29
2019-05-12T23:08:06.137Z,7.28
2019-05-12T23:10:30.620Z,7.11
2019-05-12T23:13:01.774Z,7.03
2019-05-12T23:15:29.257Z,7.00
2019-05-12T23:17:57.745Z,6.96
2019-05-12T23:20:31.189Z,6.90
2019-05-12T23:22:56.441Z,6.79
2019-05-12T23:25:24.886Z,6.86
2019-05-12T23:27:54.331Z,6.85
2019-05-12T23:30:24.336Z,6.84
2019-05-12T23:32:53.378Z,6.78
2019-05-12T23:35:21.837Z,6.83
2019-05-12T23:37:50.311Z,6.86
2019-05-12T23:40:18.824Z,6.96
2019-05-12T23:42:47.302Z,7.08
2019-05-12T23:45:15.909Z,7.23
2019-05-12T23:47:44.431Z,7.24
2019-05-12T23:50:14.270Z,7.39
2019-05-12T23:52:44.113Z,7.60
2019-05-12T23:55:13.710Z,7.58
2019-05-12T23:57:44.365Z,7.65
